sensor_id;sensor_type;location;lat;lon;timestamp;temperature;humidity
75161;DHT22;67232;50.096;8.716;2023-08-12T00:02:24;23.10;76.60
75161;DHT22;67232;50.096;8.716;2023-08-12T00:04:50;23.10;76.60
75161;DHT22;67232;50.096;8.716;2023-08-12T00:07:15;23.10;76.70
75161;DHT22;67232;50.096;8.716;2023-08-12T00:09:41;23.00;76.80
75161;DHT22;67232;50.096;8.716;2023-08-12T00:12:09;23.00;77.00
75161;DHT22;67232;50.096;8.716;2023-08-12T00:14:34;23.00;76.90
75161;DHT22;67232;50.096;8.716;2023-08-12T00:17:00;23.00;77.10
75161;DHT22;67232;50.096;8.716;2023-08-12T00:19:25;22.90;77.20
75161;DHT22;67232;50.096;8.716;2023-08-12T00:21:54;22.90;77.30
75161;DHT22;67232;50.096;8.716;2023-08-12T00:24:19;22.90;77.30
75161;DHT22;67232;50.096;8.716;2023-08-12T00:26:45;22.90;77.50
75161;DHT22;67232;50.096;8.716;2023-08-12T00:29:11;22.90;77.40
75161;DHT22;67232;50.096;8.716;2023-08-12T00:31:42;23.00;77.30
75161;DHT22;67232;50.096;8.716;2023-08-12T00:34:09;23.10;77.10
75161;DHT22;67232;50.096;8.716;2023-08-12T00:36:35;22.90;77.40
75161;DHT22;67232;50.096;8.716;2023-08-12T00:39:02;22.90;77.40
75161;DHT22;67232;50.096;8.716;2023-08-12T00:41:31;22.90;77.50
75161;DHT22;67232;50.096;8.716;2023-08-12T00:44:00;22.90;77.50
75161;DHT22;67232;50.096;8.716;2023-08-12T00:46:28;22.90;77.40
75161;DHT22;67232;50.096;8.716;2023-08-12T00:48:54;23.00;77.40
75161;DHT22;67232;50.096;8.716;2023-08-12T00:51:20;23.00;77.50
75161;DHT22;67232;50.096;8.716;2023-08-12T00:53:46;22.90;77.80
75161;DHT22;67232;50.096;8.716;2023-08-12T00:56:13;22.90;77.90
75161;DHT22;67232;50.096;8.716;2023-08-12T00:58:39;22.80;78.00
75161;DHT22;67232;50.096;8.716;2023-08-12T01:01:05;22.80;78.20
75161;DHT22;67232;50.096;8.716;2023-08-12T01:03:34;22.80;78.00
75161;DHT22;67232;50.096;8.716;2023-08-12T01:06:21;22.90;77.90
75161;DHT22;67232;50.096;8.716;2023-08-12T01:08:49;22.90;77.90
75161;DHT22;67232;50.096;8.716;2023-08-12T01:14:15;22.90;77.90
75161;DHT22;67232;50.096;8.716;2023-08-12T01:16:47;22.90;77.90
75161;DHT22;67232;50.096;8.716;2023-08-12T01:19:36;22.90;78.00
75161;DHT22;67232;50.096;8.716;2023-08-12T01:22:03;22.90;77.90
75161;DHT22;67232;50.096;8.716;2023-08-12T01:24:41;22.80;78.00
75161;DHT22;67232;50.096;8.716;2023-08-12T01:27:07;22.80;78.20
75161;DHT22;67232;50.096;8.716;2023-08-12T01:29:38;22.90;78.20
75161;DHT22;67232;50.096;8.716;2023-08-12T01:34:50;22.90;77.90
75161;DHT22;67232;50.096;8.716;2023-08-12T01:37:29;22.80;78.00
75161;DHT22;67232;50.096;8.716;2023-08-12T01:39:55;22.80;78.10
75161;DHT22;67232;50.096;8.716;2023-08-12T01:42:23;22.90;78.10
75161;DHT22;67232;50.096;8.716;2023-08-12T01:44:51;22.90;78.10
75161;DHT22;67232;50.096;8.716;2023-08-12T01:47:17;23.00;77.80
75161;DHT22;67232;50.096;8.716;2023-08-12T01:49:45;23.00;78.00
75161;DHT22;67232;50.096;8.716;2023-08-12T01:52:11;22.90;78.00
75161;DHT22;67232;50.096;8.716;2023-08-12T01:54:38;22.90;78.10
75161;DHT22;67232;50.096;8.716;2023-08-12T01:57:04;22.90;78.00
75161;DHT22;67232;50.096;8.716;2023-08-12T01:59:37;23.00;77.80
75161;DHT22;67232;50.096;8.716;2023-08-12T02:02:03;23.00;77.80
75161;DHT22;67232;50.096;8.716;2023-08-12T02:04:29;23.00;77.90
75161;DHT22;67232;50.096;8.716;2023-08-12T02:06:55;22.90;78.20
75161;DHT22;67232;50.096;8.716;2023-08-12T02:09:21;22.90;78.20
75161;DHT22;67232;50.096;8.716;2023-08-12T02:11:48;22.90;78.10
75161;DHT22;67232;50.096;8.716;2023-08-12T02:14:14;23.00;77.90
75161;DHT22;67232;50.096;8.716;2023-08-12T02:16:39;22.90;78.00
75161;DHT22;67232;50.096;8.716;2023-08-12T02:19:05;22.80;78.40
75161;DHT22;67232;50.096;8.716;2023-08-12T02:21:31;22.80;78.50
75161;DHT22;67232;50.096;8.716;2023-08-12T02:23:56;22.80;78.40
75161;DHT22;67232;50.096;8.716;2023-08-12T02:26:24;22.70;78.40
75161;DHT22;67232;50.096;8.716;2023-08-12T02:28:50;22.80;78.30
75161;DHT22;67232;50.096;8.716;2023-08-12T02:31:16;22.90;78.00
75161;DHT22;67232;50.096;8.716;2023-08-12T02:33:42;23.00;77.90
75161;DHT22;67232;50.096;8.716;2023-08-12T02:36:07;23.00;77.90
75161;DHT22;67232;50.096;8.716;2023-08-12T02:38:33;23.00;78.00
75161;DHT22;67232;50.096;8.716;2023-08-12T02:40:59;22.90;78.10
75161;DHT22;67232;50.096;8.716;2023-08-12T02:43:29;22.90;78.10
75161;DHT22;67232;50.096;8.716;2023-08-12T02:45:55;22.90;78.20
75161;DHT22;67232;50.096;8.716;2023-08-12T02:48:23;23.00;77.90
75161;DHT22;67232;50.096;8.716;2023-08-12T02:50:51;23.00;77.80
75161;DHT22;67232;50.096;8.716;2023-08-12T02:53:17;23.00;77.90
75161;DHT22;67232;50.096;8.716;2023-08-12T02:55:44;23.10;77.70
75161;DHT22;67232;50.096;8.716;2023-08-12T02:58:09;23.20;77.60
75161;DHT22;67232;50.096;8.716;2023-08-12T03:00:35;23.10;78.00
75161;DHT22;67232;50.096;8.716;2023-08-12T03:03:01;23.10;78.20
75161;DHT22;67232;50.096;8.716;2023-08-12T03:05:26;23.10;78.40
75161;DHT22;67232;50.096;8.716;2023-08-12T03:07:52;23.30;78.30
75161;DHT22;67232;50.096;8.716;2023-08-12T03:10:18;23.10;78.90
75161;DHT22;67232;50.096;8.716;2023-08-12T03:12:43;22.90;79.00
75161;DHT22;67232;50.096;8.716;2023-08-12T03:15:10;22.90;79.40
75161;DHT22;67232;50.096;8.716;2023-08-12T03:17:38;23.00;79.40
75161;DHT22;67232;50.096;8.716;2023-08-12T03:20:07;22.80;79.60
75161;DHT22;67232;50.096;8.716;2023-08-12T03:22:37;22.70;80.00
75161;DHT22;67232;50.096;8.716;2023-08-12T03:25:04;22.80;79.80
75161;DHT22;67232;50.096;8.716;2023-08-12T03:27:29;22.70;79.80
75161;DHT22;67232;50.096;8.716;2023-08-12T03:29:55;22.70;80.10
75161;DHT22;67232;50.096;8.716;2023-08-12T03:32:21;22.70;80.20
75161;DHT22;67232;50.096;8.716;2023-08-12T03:34:46;22.60;80.30
75161;DHT22;67232;50.096;8.716;2023-08-12T03:37:12;22.50;80.90
75161;DHT22;67232;50.096;8.716;2023-08-12T03:39:37;22.50;81.00
75161;DHT22;67232;50.096;8.716;2023-08-12T03:42:03;22.40;81.40
75161;DHT22;67232;50.096;8.716;2023-08-12T03:44:28;22.40;81.50
75161;DHT22;67232;50.096;8.716;2023-08-12T03:46:59;22.70;81.10
75161;DHT22;67232;50.096;8.716;2023-08-12T03:49:24;22.70;81.00
75161;DHT22;67232;50.096;8.716;2023-08-12T03:51:50;22.60;81.20
75161;DHT22;67232;50.096;8.716;2023-08-12T03:54:15;22.50;81.60
75161;DHT22;67232;50.096;8.716;2023-08-12T03:56:41;22.40;81.70
75161;DHT22;67232;50.096;8.716;2023-08-12T03:59:08;22.40;82.00
75161;DHT22;67232;50.096;8.716;2023-08-12T04:01:37;22.40;82.10
75161;DHT22;67232;50.096;8.716;2023-08-12T04:04:03;22.40;82.30
75161;DHT22;67232;50.096;8.716;2023-08-12T04:06:28;22.40;82.20
75161;DHT22;67232;50.096;8.716;2023-08-12T04:08:54;22.50;82.00
75161;DHT22;67232;50.096;8.716;2023-08-12T04:11:19;22.60;82.00
75161;DHT22;67232;50.096;8.716;2023-08-12T04:13:45;22.60;82.10
75161;DHT22;67232;50.096;8.716;2023-08-12T04:16:11;22.60;82.10
75161;DHT22;67232;50.096;8.716;2023-08-12T04:18:36;22.60;82.20
75161;DHT22;67232;50.096;8.716;2023-08-12T04:21:02;22.60;82.30
75161;DHT22;67232;50.096;8.716;2023-08-12T04:23:30;22.60;82.50
75161;DHT22;67232;50.096;8.716;2023-08-12T04:25:55;22.70;82.10
75161;DHT22;67232;50.096;8.716;2023-08-12T04:28:23;22.60;82.30
75161;DHT22;67232;50.096;8.716;2023-08-12T04:30:49;22.50;82.60
75161;DHT22;67232;50.096;8.716;2023-08-12T04:33:18;22.40;82.50
75161;DHT22;67232;50.096;8.716;2023-08-12T04:35:46;22.40;82.60
75161;DHT22;67232;50.096;8.716;2023-08-12T04:38:11;22.40;82.80
75161;DHT22;67232;50.096;8.716;2023-08-12T04:40:40;22.20;82.90
75161;DHT22;67232;50.096;8.716;2023-08-12T04:43:13;21.90;83.60
75161;DHT22;67232;50.096;8.716;2023-08-12T04:45:38;22.00;83.60
75161;DHT22;67232;50.096;8.716;2023-08-12T04:48:05;22.10;83.70
75161;DHT22;67232;50.096;8.716;2023-08-12T04:50:31;22.20;83.50
75161;DHT22;67232;50.096;8.716;2023-08-12T04:53:00;22.20;83.40
75161;DHT22;67232;50.096;8.716;2023-08-12T04:55:28;22.20;83.50
75161;DHT22;67232;50.096;8.716;2023-08-12T04:57:56;22.20;83.60
75161;DHT22;67232;50.096;8.716;2023-08-12T05:00:22;22.30;83.40
75161;DHT22;67232;50.096;8.716;2023-08-12T05:02:48;22.30;82.80
75161;DHT22;67232;50.096;8.716;2023-08-12T05:05:16;22.30;82.90
75161;DHT22;67232;50.096;8.716;2023-08-12T05:07:45;22.20;83.10
75161;DHT22;67232;50.096;8.716;2023-08-12T05:10:16;22.20;83.10
75161;DHT22;67232;50.096;8.716;2023-08-12T05:12:45;22.00;83.70
75161;DHT22;67232;50.096;8.716;2023-08-12T05:15:15;21.90;83.90
75161;DHT22;67232;50.096;8.716;2023-08-12T05:17:41;22.00;83.90
75161;DHT22;67232;50.096;8.716;2023-08-12T05:20:07;22.00;83.70
75161;DHT22;67232;50.096;8.716;2023-08-12T05:22:33;21.80;84.00
75161;DHT22;67232;50.096;8.716;2023-08-12T05:24:59;21.70;84.30
75161;DHT22;67232;50.096;8.716;2023-08-12T05:27:27;21.80;84.20
75161;DHT22;67232;50.096;8.716;2023-08-12T05:29:52;21.90;84.20
75161;DHT22;67232;50.096;8.716;2023-08-12T05:32:18;21.90;83.90
75161;DHT22;67232;50.096;8.716;2023-08-12T05:34:46;21.70;84.40
75161;DHT22;67232;50.096;8.716;2023-08-12T05:37:14;21.70;84.60
75161;DHT22;67232;50.096;8.716;2023-08-12T05:39:40;21.80;84.60
75161;DHT22;67232;50.096;8.716;2023-08-12T05:42:05;21.60;84.50
75161;DHT22;67232;50.096;8.716;2023-08-12T05:44:31;21.50;84.90
75161;DHT22;67232;50.096;8.716;2023-08-12T05:46:57;21.60;84.70
75161;DHT22;67232;50.096;8.716;2023-08-12T05:49:25;21.70;84.60
75161;DHT22;67232;50.096;8.716;2023-08-12T05:51:50;21.70;84.40
75161;DHT22;67232;50.096;8.716;2023-08-12T05:54:16;21.70;84.50
75161;DHT22;67232;50.096;8.716;2023-08-12T05:56:41;21.80;83.90
75161;DHT22;67232;50.096;8.716;2023-08-12T05:59:09;21.80;84.00
75161;DHT22;67232;50.096;8.716;2023-08-12T06:01:42;21.70;83.90
75161;DHT22;67232;50.096;8.716;2023-08-12T06:04:07;21.70;84.30
75161;DHT22;67232;50.096;8.716;2023-08-12T06:06:38;21.70;84.30
75161;DHT22;67232;50.096;8.716;2023-08-12T06:09:03;21.70;84.20
75161;DHT22;67232;50.096;8.716;2023-08-12T06:11:32;21.80;83.80
75161;DHT22;67232;50.096;8.716;2023-08-12T06:13:59;21.80;84.00
75161;DHT22;67232;50.096;8.716;2023-08-12T06:16:25;21.90;83.80
75161;DHT22;67232;50.096;8.716;2023-08-12T06:18:53;22.10;83.60
75161;DHT22;67232;50.096;8.716;2023-08-12T06:21:19;22.10;83.20
75161;DHT22;67232;50.096;8.716;2023-08-12T06:23:44;22.10;83.20
75161;DHT22;67232;50.096;8.716;2023-08-12T06:26:10;22.30;83.00
75161;DHT22;67232;50.096;8.716;2023-08-12T06:28:35;22.50;82.60
75161;DHT22;67232;50.096;8.716;2023-08-12T06:31:01;22.70;82.30
75161;DHT22;67232;50.096;8.716;2023-08-12T06:33:27;22.90;82.30
75161;DHT22;67232;50.096;8.716;2023-08-12T06:35:55;23.00;81.90
75161;DHT22;67232;50.096;8.716;2023-08-12T06:38:20;23.00;81.90
75161;DHT22;67232;50.096;8.716;2023-08-12T06:40:48;23.20;81.80
75161;DHT22;67232;50.096;8.716;2023-08-12T06:43:14;23.30;81.50
75161;DHT22;67232;50.096;8.716;2023-08-12T06:45:42;23.50;81.40
75161;DHT22;67232;50.096;8.716;2023-08-12T06:48:10;23.60;81.10
75161;DHT22;67232;50.096;8.716;2023-08-12T06:50:37;23.80;81.00
75161;DHT22;67232;50.096;8.716;2023-08-12T06:53:06;23.90;80.80
75161;DHT22;67232;50.096;8.716;2023-08-12T06:55:32;24.00;80.20
75161;DHT22;67232;50.096;8.716;2023-08-12T06:58:00;24.00;80.10
75161;DHT22;67232;50.096;8.716;2023-08-12T07:00:26;24.10;79.90
75161;DHT22;67232;50.096;8.716;2023-08-12T07:02:51;24.20;79.90
75161;DHT22;67232;50.096;8.716;2023-08-12T07:05:19;24.30;79.80
75161;DHT22;67232;50.096;8.716;2023-08-12T07:07:45;24.40;79.80
75161;DHT22;67232;50.096;8.716;2023-08-12T07:10:10;24.50;79.40
75161;DHT22;67232;50.096;8.716;2023-08-12T07:12:36;24.60;79.60
75161;DHT22;67232;50.096;8.716;2023-08-12T07:15:04;24.70;79.50
75161;DHT22;67232;50.096;8.716;2023-08-12T07:17:30;24.70;79.20
75161;DHT22;67232;50.096;8.716;2023-08-12T07:19:55;24.70;78.60
75161;DHT22;67232;50.096;8.716;2023-08-12T07:22:21;24.70;77.60
75161;DHT22;67232;50.096;8.716;2023-08-12T07:24:46;24.80;77.60
75161;DHT22;67232;50.096;8.716;2023-08-12T07:27:14;25.10;78.00
75161;DHT22;67232;50.096;8.716;2023-08-12T07:29:42;25.20;77.80
75161;DHT22;67232;50.096;8.716;2023-08-12T07:32:08;25.20;77.80
75161;DHT22;67232;50.096;8.716;2023-08-12T07:34:33;25.20;77.70
75161;DHT22;67232;50.096;8.716;2023-08-12T07:37:01;25.30;77.80
75161;DHT22;67232;50.096;8.716;2023-08-12T07:39:29;25.20;77.90
75161;DHT22;67232;50.096;8.716;2023-08-12T07:41:59;25.30;77.40
75161;DHT22;67232;50.096;8.716;2023-08-12T07:44:27;25.40;76.90
75161;DHT22;67232;50.096;8.716;2023-08-12T07:46:53;25.50;76.70
75161;DHT22;67232;50.096;8.716;2023-08-12T07:49:18;25.50;77.10
75161;DHT22;67232;50.096;8.716;2023-08-12T07:51:44;25.60;77.60
75161;DHT22;67232;50.096;8.716;2023-08-12T07:54:10;25.70;77.00
75161;DHT22;67232;50.096;8.716;2023-08-12T07:56:35;25.80;76.60
75161;DHT22;67232;50.096;8.716;2023-08-12T07:59:01;25.80;76.50
75161;DHT22;67232;50.096;8.716;2023-08-12T08:01:29;26.00;76.40
75161;DHT22;67232;50.096;8.716;2023-08-12T08:03:57;25.90;76.30
75161;DHT22;67232;50.096;8.716;2023-08-12T08:06:25;26.00;76.60
75161;DHT22;67232;50.096;8.716;2023-08-12T08:08:50;26.00;75.80
75161;DHT22;67232;50.096;8.716;2023-08-12T08:11:16;26.00;76.00
75161;DHT22;67232;50.096;8.716;2023-08-12T08:13:41;25.90;76.30
75161;DHT22;67232;50.096;8.716;2023-08-12T08:16:10;25.80;76.10
75161;DHT22;67232;50.096;8.716;2023-08-12T08:18:35;25.80;76.30
75161;DHT22;67232;50.096;8.716;2023-08-12T08:21:03;25.90;76.50
75161;DHT22;67232;50.096;8.716;2023-08-12T08:23:31;25.90;77.00
75161;DHT22;67232;50.096;8.716;2023-08-12T08:25:57;25.90;76.60
75161;DHT22;67232;50.096;8.716;2023-08-12T08:28:22;26.00;76.40
75161;DHT22;67232;50.096;8.716;2023-08-12T08:30:50;25.90;76.50
75161;DHT22;67232;50.096;8.716;2023-08-12T08:33:18;25.80;77.10
75161;DHT22;67232;50.096;8.716;2023-08-12T08:35:46;25.80;76.80
75161;DHT22;67232;50.096;8.716;2023-08-12T08:38:12;26.10;76.60
75161;DHT22;67232;50.096;8.716;2023-08-12T08:40:40;26.20;75.30
75161;DHT22;67232;50.096;8.716;2023-08-12T08:43:07;26.40;75.50
75161;DHT22;67232;50.096;8.716;2023-08-12T08:45:33;26.60;74.50
75161;DHT22;67232;50.096;8.716;2023-08-12T08:48:00;26.70;74.30
75161;DHT22;67232;50.096;8.716;2023-08-12T08:50:28;26.80;73.60
75161;DHT22;67232;50.096;8.716;2023-08-12T08:52:56;27.20;73.20
75161;DHT22;67232;50.096;8.716;2023-08-12T08:55:24;27.50;72.30
75161;DHT22;67232;50.096;8.716;2023-08-12T08:57:49;27.50;72.40
75161;DHT22;67232;50.096;8.716;2023-08-12T09:00:16;27.80;71.30
75161;DHT22;67232;50.096;8.716;2023-08-12T09:02:51;27.80;71.70
75161;DHT22;67232;50.096;8.716;2023-08-12T09:05:18;27.90;71.40
75161;DHT22;67232;50.096;8.716;2023-08-12T09:07:46;28.10;71.10
75161;DHT22;67232;50.096;8.716;2023-08-12T09:10:13;28.10;70.30
75161;DHT22;67232;50.096;8.716;2023-08-12T09:12:39;27.90;71.30
75161;DHT22;67232;50.096;8.716;2023-08-12T09:15:05;27.80;71.40
75161;DHT22;67232;50.096;8.716;2023-08-12T09:17:33;27.90;70.70
75161;DHT22;67232;50.096;8.716;2023-08-12T09:20:01;27.90;71.30
75161;DHT22;67232;50.096;8.716;2023-08-12T09:22:28;27.90;71.60
75161;DHT22;67232;50.096;8.716;2023-08-12T09:24:57;27.80;71.30
75161;DHT22;67232;50.096;8.716;2023-08-12T09:27:23;27.40;72.10
75161;DHT22;67232;50.096;8.716;2023-08-12T09:29:55;27.00;73.20
75161;DHT22;67232;50.096;8.716;2023-08-12T09:32:22;27.00;73.50
75161;DHT22;67232;50.096;8.716;2023-08-12T09:34:53;27.40;72.90
75161;DHT22;67232;50.096;8.716;2023-08-12T09:37:19;27.60;72.90
75161;DHT22;67232;50.096;8.716;2023-08-12T09:39:47;27.90;72.00
75161;DHT22;67232;50.096;8.716;2023-08-12T09:42:16;28.20;71.50
75161;DHT22;67232;50.096;8.716;2023-08-12T09:44:42;28.50;70.10
75161;DHT22;67232;50.096;8.716;2023-08-12T09:47:08;28.60;69.40
75161;DHT22;67232;50.096;8.716;2023-08-12T09:49:34;28.60;69.70
75161;DHT22;67232;50.096;8.716;2023-08-12T09:52:04;28.40;70.20
75161;DHT22;67232;50.096;8.716;2023-08-12T09:54:33;28.20;69.60
75161;DHT22;67232;50.096;8.716;2023-08-12T09:57:01;28.20;69.80
75161;DHT22;67232;50.096;8.716;2023-08-12T09:59:31;28.30;69.90
75161;DHT22;67232;50.096;8.716;2023-08-12T10:01:58;28.30;69.90
75161;DHT22;67232;50.096;8.716;2023-08-12T10:04:33;28.20;70.00
75161;DHT22;67232;50.096;8.716;2023-08-12T10:07:00;28.20;69.70
75161;DHT22;67232;50.096;8.716;2023-08-12T10:09:32;28.10;70.40
75161;DHT22;67232;50.096;8.716;2023-08-12T10:11:58;28.10;69.70
75161;DHT22;67232;50.096;8.716;2023-08-12T10:14:24;28.00;70.60
75161;DHT22;67232;50.096;8.716;2023-08-12T10:16:53;27.80;71.00
75161;DHT22;67232;50.096;8.716;2023-08-12T10:19:20;27.70;71.10
75161;DHT22;67232;50.096;8.716;2023-08-12T10:21:50;27.30;71.50
75161;DHT22;67232;50.096;8.716;2023-08-12T10:24:20;27.10;72.40
75161;DHT22;67232;50.096;8.716;2023-08-12T10:26:48;26.90;73.10
75161;DHT22;67232;50.096;8.716;2023-08-12T10:29:15;26.70;74.20
75161;DHT22;67232;50.096;8.716;2023-08-12T10:31:41;26.50;75.20
75161;DHT22;67232;50.096;8.716;2023-08-12T10:34:21;26.40;77.10
75161;DHT22;67232;50.096;8.716;2023-08-12T10:36:47;26.20;78.70
75161;DHT22;67232;50.096;8.716;2023-08-12T10:39:13;25.90;79.30
75161;DHT22;67232;50.096;8.716;2023-08-12T10:41:50;25.70;79.40
75161;DHT22;67232;50.096;8.716;2023-08-12T10:44:20;25.70;80.00
75161;DHT22;67232;50.096;8.716;2023-08-12T10:46:53;25.50;80.60
75161;DHT22;67232;50.096;8.716;2023-08-12T10:49:22;25.40;80.60
75161;DHT22;67232;50.096;8.716;2023-08-12T10:51:54;25.30;80.40
75161;DHT22;67232;50.096;8.716;2023-08-12T10:54:27;25.10;81.40
75161;DHT22;67232;50.096;8.716;2023-08-12T11:02:16;24.60;82.60
75161;DHT22;67232;50.096;8.716;2023-08-12T11:04:48;24.70;82.80
75161;DHT22;67232;50.096;8.716;2023-08-12T11:07:18;24.70;82.80
75161;DHT22;67232;50.096;8.716;2023-08-12T11:09:45;24.50;83.00
75161;DHT22;67232;50.096;8.716;2023-08-12T11:12:13;24.40;83.50
75161;DHT22;67232;50.096;8.716;2023-08-12T11:14:58;24.20;84.60
75161;DHT22;67232;50.096;8.716;2023-08-12T11:17:40;24.20;84.60
75161;DHT22;67232;50.096;8.716;2023-08-12T11:20:09;24.30;84.70
75161;DHT22;67232;50.096;8.716;2023-08-12T11:22:41;24.30;84.60
75161;DHT22;67232;50.096;8.716;2023-08-12T11:25:11;24.30;84.50
75161;DHT22;67232;50.096;8.716;2023-08-12T11:27:43;24.30;84.60
75161;DHT22;67232;50.096;8.716;2023-08-12T11:30:14;24.10;85.00
75161;DHT22;67232;50.096;8.716;2023-08-12T11:32:45;24.10;85.40
75161;DHT22;67232;50.096;8.716;2023-08-12T11:35:15;24.10;85.40
75161;DHT22;67232;50.096;8.716;2023-08-12T11:37:42;24.00;85.70
75161;DHT22;67232;50.096;8.716;2023-08-12T11:40:10;24.00;85.90
75161;DHT22;67232;50.096;8.716;2023-08-12T11:42:37;24.00;85.70
75161;DHT22;67232;50.096;8.716;2023-08-12T11:45:05;24.00;85.60
75161;DHT22;67232;50.096;8.716;2023-08-12T11:47:33;23.90;86.30
75161;DHT22;67232;50.096;8.716;2023-08-12T11:49:58;23.90;86.50
75161;DHT22;67232;50.096;8.716;2023-08-12T11:52:29;23.70;87.00
75161;DHT22;67232;50.096;8.716;2023-08-12T11:54:56;23.70;87.50
75161;DHT22;67232;50.096;8.716;2023-08-12T11:57:24;23.90;87.30
75161;DHT22;67232;50.096;8.716;2023-08-12T11:59:51;23.80;87.40
75161;DHT22;67232;50.096;8.716;2023-08-12T12:02:16;23.50;87.70
75161;DHT22;67232;50.096;8.716;2023-08-12T12:04:42;23.60;87.70
75161;DHT22;67232;50.096;8.716;2023-08-12T12:07:18;23.70;87.70
75161;DHT22;67232;50.096;8.716;2023-08-12T12:09:43;23.70;87.20
75161;DHT22;67232;50.096;8.716;2023-08-12T12:12:10;23.60;87.60
75161;DHT22;67232;50.096;8.716;2023-08-12T12:14:36;23.60;86.90
75161;DHT22;67232;50.096;8.716;2023-08-12T12:17:07;23.70;86.50
75161;DHT22;67232;50.096;8.716;2023-08-12T12:19:34;23.80;86.50
75161;DHT22;67232;50.096;8.716;2023-08-12T12:22:04;23.60;86.90
75161;DHT22;67232;50.096;8.716;2023-08-12T12:24:30;23.50;87.20
75161;DHT22;67232;50.096;8.716;2023-08-12T12:26:56;23.50;87.00
75161;DHT22;67232;50.096;8.716;2023-08-12T12:29:24;23.50;86.80
75161;DHT22;67232;50.096;8.716;2023-08-12T12:31:50;23.30;86.60
75161;DHT22;67232;50.096;8.716;2023-08-12T12:34:15;23.20;87.40
75161;DHT22;67232;50.096;8.716;2023-08-12T12:36:42;23.10;87.70
75161;DHT22;67232;50.096;8.716;2023-08-12T12:39:10;23.30;87.40
75161;DHT22;67232;50.096;8.716;2023-08-12T12:41:36;23.50;86.40
75161;DHT22;67232;50.096;8.716;2023-08-12T12:44:02;23.60;86.00
75161;DHT22;67232;50.096;8.716;2023-08-12T12:46:28;23.50;86.20
75161;DHT22;67232;50.096;8.716;2023-08-12T12:48:56;23.60;86.30
75161;DHT22;67232;50.096;8.716;2023-08-12T12:51:24;23.80;85.10
75161;DHT22;67232;50.096;8.716;2023-08-12T12:53:50;23.80;85.30
75161;DHT22;67232;50.096;8.716;2023-08-12T12:56:15;24.20;84.60
75161;DHT22;67232;50.096;8.716;2023-08-12T12:58:41;24.20;82.90
75161;DHT22;67232;50.096;8.716;2023-08-12T13:01:06;24.30;84.70
75161;DHT22;67232;50.096;8.716;2023-08-12T13:03:34;24.50;84.00
75161;DHT22;67232;50.096;8.716;2023-08-12T13:06:02;24.70;83.90
75161;DHT22;67232;50.096;8.716;2023-08-12T13:08:29;24.90;83.50
75161;DHT22;67232;50.096;8.716;2023-08-12T13:10:56;24.70;82.70
75161;DHT22;67232;50.096;8.716;2023-08-12T13:13:22;24.80;82.30
75161;DHT22;67232;50.096;8.716;2023-08-12T13:15:47;24.80;83.20
75161;DHT22;67232;50.096;8.716;2023-08-12T13:18:15;24.80;81.80
75161;DHT22;67232;50.096;8.716;2023-08-12T13:20:43;25.00;81.90
75161;DHT22;67232;50.096;8.716;2023-08-12T13:23:09;25.20;81.60
75161;DHT22;67232;50.096;8.716;2023-08-12T13:25:34;25.80;81.20
75161;DHT22;67232;50.096;8.716;2023-08-12T13:28:03;25.90;80.40
75161;DHT22;67232;50.096;8.716;2023-08-12T13:30:29;26.10;79.10
75161;DHT22;67232;50.096;8.716;2023-08-12T13:32:55;26.20;79.10
75161;DHT22;67232;50.096;8.716;2023-08-12T13:35:23;26.50;78.70
75161;DHT22;67232;50.096;8.716;2023-08-12T13:37:50;26.60;77.50
75161;DHT22;67232;50.096;8.716;2023-08-12T13:40:16;26.80;77.40
75161;DHT22;67232;50.096;8.716;2023-08-12T13:42:42;27.00;76.60
75161;DHT22;67232;50.096;8.716;2023-08-12T13:45:10;27.30;76.40
75161;DHT22;67232;50.096;8.716;2023-08-12T13:47:38;27.50;76.30
75161;DHT22;67232;50.096;8.716;2023-08-12T13:50:04;27.90;75.60
75161;DHT22;67232;50.096;8.716;2023-08-12T13:52:30;27.80;76.00
75161;DHT22;67232;50.096;8.716;2023-08-12T13:54:59;27.40;75.90
75161;DHT22;67232;50.096;8.716;2023-08-12T13:57:27;27.40;76.40
75161;DHT22;67232;50.096;8.716;2023-08-12T13:59:52;27.30;77.00
75161;DHT22;67232;50.096;8.716;2023-08-12T14:02:18;27.30;75.90
75161;DHT22;67232;50.096;8.716;2023-08-12T14:04:43;26.90;76.80
75161;DHT22;67232;50.096;8.716;2023-08-12T14:07:11;26.90;76.90
75161;DHT22;67232;50.096;8.716;2023-08-12T14:09:39;26.80;77.70
75161;DHT22;67232;50.096;8.716;2023-08-12T14:12:07;26.90;77.50
75161;DHT22;67232;50.096;8.716;2023-08-12T14:14:32;26.90;77.60
75161;DHT22;67232;50.096;8.716;2023-08-12T14:16:58;26.90;77.70
75161;DHT22;67232;50.096;8.716;2023-08-12T14:19:28;26.80;77.30
75161;DHT22;67232;50.096;8.716;2023-08-12T14:21:56;26.90;77.20
75161;DHT22;67232;50.096;8.716;2023-08-12T14:24:22;26.80;76.50
75161;DHT22;67232;50.096;8.716;2023-08-12T14:26:47;26.60;77.30
75161;DHT22;67232;50.096;8.716;2023-08-12T14:29:13;26.60;77.10
75161;DHT22;67232;50.096;8.716;2023-08-12T14:31:40;26.50;77.80
75161;DHT22;67232;50.096;8.716;2023-08-12T14:34:08;26.60;78.50
75161;DHT22;67232;50.096;8.716;2023-08-12T14:36:34;26.70;78.20
75161;DHT22;67232;50.096;8.716;2023-08-12T14:39:01;26.80;78.10
75161;DHT22;67232;50.096;8.716;2023-08-12T14:41:27;27.10;78.20
75161;DHT22;67232;50.096;8.716;2023-08-12T14:43:52;27.20;77.10
75161;DHT22;67232;50.096;8.716;2023-08-12T14:46:20;27.20;77.00
75161;DHT22;67232;50.096;8.716;2023-08-12T14:48:45;27.00;77.30
75161;DHT22;67232;50.096;8.716;2023-08-12T14:51:11;26.80;76.30
75161;DHT22;67232;50.096;8.716;2023-08-12T14:53:41;26.40;77.30
75161;DHT22;67232;50.096;8.716;2023-08-12T14:56:07;26.20;77.90
75161;DHT22;67232;50.096;8.716;2023-08-12T14:58:33;26.20;78.20
75161;DHT22;67232;50.096;8.716;2023-08-12T15:01:01;26.30;77.90
75161;DHT22;67232;50.096;8.716;2023-08-12T15:03:29;26.10;77.60
75161;DHT22;67232;50.096;8.716;2023-08-12T15:06:02;25.90;78.40
75161;DHT22;67232;50.096;8.716;2023-08-12T15:08:29;26.10;78.30
75161;DHT22;67232;50.096;8.716;2023-08-12T15:10:55;26.20;78.10
75161;DHT22;67232;50.096;8.716;2023-08-12T15:13:23;26.20;78.40
75161;DHT22;67232;50.096;8.716;2023-08-12T15:15:49;26.10;78.50
75161;DHT22;67232;50.096;8.716;2023-08-12T15:18:16;26.20;78.70
75161;DHT22;67232;50.096;8.716;2023-08-12T15:20:42;26.10;78.80
75161;DHT22;67232;50.096;8.716;2023-08-12T15:23:07;26.10;79.10
75161;DHT22;67232;50.096;8.716;2023-08-12T15:25:33;25.80;79.40
75161;DHT22;67232;50.096;8.716;2023-08-12T15:28:01;25.80;79.80
75161;DHT22;67232;50.096;8.716;2023-08-12T15:30:29;25.70;80.10
75161;DHT22;67232;50.096;8.716;2023-08-12T15:32:55;25.60;80.10
75161;DHT22;67232;50.096;8.716;2023-08-12T15:35:21;25.80;80.30
75161;DHT22;67232;50.096;8.716;2023-08-12T15:37:47;25.80;80.40
75161;DHT22;67232;50.096;8.716;2023-08-12T15:40:17;25.80;80.10
75161;DHT22;67232;50.096;8.716;2023-08-12T15:42:42;26.00;79.60